createdAt,value
2023-10-19T00:00:40.452Z,51.34
2023-10-19T00:03:07.937Z,51.36
2023-10-19T00:05:34.712Z,51.46
2023-10-19T00:08:06.946Z,51.55
2023-10-19T00:10:37.502Z,51.54
2023-10-19T00:13:06.281Z,51.72
2023-10-19T00:15:35.709Z,51.95
2023-10-19T00:18:25.296Z,51.77
2023-10-19T00:20:55.146Z,51.89
2023-10-19T00:23:30.350Z,52.01
2023-10-19T00:25:58.379Z,52.02
2023-10-19T00:28:27.954Z,51.94
2023-10-19T00:31:00.612Z,52.09
2023-10-19T00:33:29.852Z,52.01
2023-10-19T00:36:09.336Z,52.04
2023-10-19T00:38:38.331Z,52.13
2023-10-19T00:41:13.441Z,52.16
2023-10-19T00:43:45.510Z,52.07
2023-10-19T00:46:21.737Z,52.10
2023-10-19T00:49:00.418Z,52.14
2023-10-19T00:51:36.182Z,51.94
2023-10-19T00:54:15.437Z,52.09
2023-10-19T00:56:50.857Z,52.24
2023-10-19T00:59:24.064Z,52.11
2023-10-19T01:01:55.184Z,52.14
2023-10-19T01:04:33.148Z,52.00
2023-10-19T01:07:06.643Z,51.91
2023-10-19T01:09:37.798Z,51.87
2023-10-19T01:12:22.521Z,51.70
2023-10-19T01:15:18.659Z,51.60
2023-10-19T01:17:47.522Z,51.50
2023-10-19T01:20:21.702Z,51.67
2023-10-19T01:22:54.734Z,51.81
2023-10-19T01:25:35.239Z,51.81
2023-10-19T01:28:10.250Z,51.83
2023-10-19T01:30:38.222Z,51.81
2023-10-19T01:33:13.946Z,52.09
2023-10-19T01:36:00.185Z,52.09
2023-10-19T01:38:32.113Z,52.21
2023-10-19T01:41:03.817Z,52.27
2023-10-19T01:43:33.613Z,52.19
2023-10-19T01:46:12.629Z,52.30
2023-10-19T01:48:44.365Z,52.37
2023-10-19T01:51:12.451Z,52.28
2023-10-19T01:53:44.880Z,52.41
2023-10-19T01:56:13.927Z,52.40
2023-10-19T01:58:42.498Z,52.60
2023-10-19T02:01:13.614Z,52.52
2023-10-19T02:03:44.512Z,52.70
2023-10-19T02:06:20.822Z,52.63
2023-10-19T02:09:02.089Z,52.67
2023-10-19T02:11:29.967Z,52.78
2023-10-19T02:14:01.280Z,52.88
2023-10-19T02:16:30.782Z,52.93
2023-10-19T02:18:58.025Z,53.03
2023-10-19T02:21:28.300Z,53.06
2023-10-19T02:23:55.163Z,52.99
2023-10-19T02:26:24.030Z,53.23
2023-10-19T02:28:53.777Z,53.11
2023-10-19T02:31:24.829Z,53.15
2023-10-19T02:34:01.340Z,53.14
2023-10-19T02:36:31.946Z,53.32
2023-10-19T02:39:08.912Z,52.79
2023-10-19T02:41:36.936Z,52.83
2023-10-19T02:44:11.207Z,53.01
2023-10-19T02:46:43.216Z,53.01
2023-10-19T02:49:19.745Z,53.00
2023-10-19T02:51:49.085Z,53.16
2023-10-19T02:54:29.717Z,53.09
2023-10-19T02:57:00.264Z,52.97
2023-10-19T02:59:33.237Z,53.09
2023-10-19T03:02:13.278Z,52.89
2023-10-19T03:04:42.326Z,52.58
2023-10-19T03:07:11.181Z,52.72
2023-10-19T03:09:38.127Z,52.76
2023-10-19T03:12:06.638Z,52.68
2023-10-19T03:14:34.184Z,53.20
2023-10-19T03:17:02.020Z,53.04
2023-10-19T03:19:29.282Z,53.01
2023-10-19T03:22:01.447Z,53.04
2023-10-19T03:24:38.088Z,53.19
2023-10-19T03:27:19.417Z,53.26
2023-10-19T03:29:57.540Z,53.33
2023-10-19T03:32:30.127Z,53.31
2023-10-19T03:34:57.675Z,53.38
2023-10-19T03:37:27.120Z,53.39
2023-10-19T03:39:57.598Z,53.22
2023-10-19T03:42:33.542Z,53.31
2023-10-19T03:45:03.565Z,53.00
2023-10-19T03:47:36.444Z,52.96
2023-10-19T03:50:08.196Z,53.04
2023-10-19T03:52:39.422Z,53.06
2023-10-19T03:55:12.630Z,52.80
2023-10-19T03:57:47.996Z,52.89
2023-10-19T04:00:25.855Z,52.84
2023-10-19T04:02:54.798Z,52.50
2023-10-19T04:05:23.679Z,52.68
2023-10-19T04:07:58.263Z,52.84
2023-10-19T04:10:31.701Z,52.85
2023-10-19T04:13:01.947Z,52.79
2023-10-19T04:15:36.714Z,52.61
2023-10-19T04:18:14.840Z,52.84
2023-10-19T04:20:53.479Z,52.50
2023-10-19T04:23:22.261Z,52.78
2023-10-19T04:25:49.264Z,52.79
2023-10-19T04:28:16.684Z,53.00
2023-10-19T04:30:43.885Z,52.70
2023-10-19T04:33:11.370Z,53.20
2023-10-19T04:35:39.065Z,52.99
2023-10-19T04:38:09.714Z,53.03
2023-10-19T04:40:36.894Z,53.04
2023-10-19T04:43:06.508Z,53.14
2023-10-19T04:45:33.509Z,53.05
2023-10-19T04:48:00.391Z,53.05
2023-10-19T04:50:27.245Z,53.04
2023-10-19T04:52:54.078Z,53.02
2023-10-19T04:55:20.897Z,52.99
2023-10-19T04:57:47.713Z,52.98
2023-10-19T05:00:16.493Z,53.27
2023-10-19T05:02:44.213Z,52.94
2023-10-19T05:05:11.474Z,53.03
2023-10-19T05:07:39.325Z,52.99
2023-10-19T05:10:07.023Z,52.92
2023-10-19T05:12:34.192Z,52.76
2023-10-19T05:15:01.188Z,52.84
2023-10-19T05:17:28.831Z,52.71
2023-10-19T05:19:56.794Z,52.70
2023-10-19T05:22:26.195Z,52.71
2023-10-19T05:24:53.370Z,52.58
2023-10-19T05:27:21.210Z,52.51
2023-10-19T05:29:48.406Z,52.35
2023-10-19T05:32:15.396Z,52.34
2023-10-19T05:34:42.242Z,52.68
2023-10-19T05:37:10.207Z,52.46
2023-10-19T05:39:37.765Z,52.49
2023-10-19T05:42:05.690Z,52.39
2023-10-19T05:44:33.405Z,52.46
2023-10-19T05:47:01.774Z,52.60
2023-10-19T05:49:33.316Z,52.50
2023-10-19T05:52:00.521Z,52.57
2023-10-19T05:54:28.437Z,52.68
2023-10-19T05:56:55.465Z,52.84
2023-10-19T05:59:22.592Z,52.68
2023-10-19T06:01:49.934Z,52.74
2023-10-19T06:04:20.786Z,52.79
2023-10-19T06:06:49.925Z,52.89
2023-10-19T06:09:18.387Z,53.07
2023-10-19T06:11:45.757Z,53.16
2023-10-19T06:14:12.549Z,53.09
2023-10-19T06:16:39.501Z,53.08
2023-10-19T06:19:06.793Z,53.36
2023-10-19T06:21:34.957Z,53.69
2023-10-19T06:24:02.217Z,54.14
2023-10-19T06:26:29.812Z,54.64
2023-10-19T06:29:03.748Z,54.91
2023-10-19T06:31:31.210Z,55.21
2023-10-19T06:33:59.018Z,55.68
2023-10-19T06:36:26.545Z,56.01
2023-10-19T06:38:55.673Z,56.14
2023-10-19T06:41:23.328Z,56.24
2023-10-19T06:43:51.371Z,56.44
2023-10-19T06:46:19.952Z,56.83
2023-10-19T06:48:46.700Z,56.88
2023-10-19T06:51:13.787Z,57.02
2023-10-19T06:53:40.588Z,57.10
2023-10-19T06:56:08.022Z,57.41
2023-10-19T06:58:35.879Z,57.55
2023-10-19T07:01:08.872Z,57.64
2023-10-19T07:03:36.574Z,57.71
2023-10-19T07:06:09.006Z,57.79
2023-10-19T07:08:37.044Z,57.61
2023-10-19T07:11:04.336Z,57.82
2023-10-19T07:13:34.485Z,57.92
2023-10-19T07:16:05.494Z,57.84
2023-10-19T07:18:32.679Z,57.91
2023-10-19T07:21:05.023Z,57.89
2023-10-19T07:23:32.675Z,57.91
2023-10-19T07:26:02.252Z,57.41
2023-10-19T07:28:29.650Z,57.59
2023-10-19T07:30:58.103Z,57.84
2023-10-19T07:33:25.710Z,57.71
2023-10-19T07:35:55.716Z,57.93
2023-10-19T07:38:24.080Z,57.54
2023-10-19T07:40:54.293Z,57.75
2023-10-19T07:43:22.861Z,57.84
2023-10-19T07:45:50.161Z,57.84
2023-10-19T07:48:18.361Z,57.74
2023-10-19T07:50:45.784Z,57.78
2023-10-19T07:53:12.949Z,57.71
2023-10-19T07:55:40.676Z,57.77
2023-10-19T07:58:08.106Z,57.93
2023-10-19T08:00:37.404Z,57.83
2023-10-19T08:03:05.734Z,57.89
2023-10-19T08:05:34.731Z,57.92
2023-10-19T08:08:02.445Z,58.04
2023-10-19T08:10:29.666Z,57.91
2023-10-19T08:12:57.014Z,58.10
2023-10-19T08:15:24.422Z,58.08
2023-10-19T08:17:55.281Z,58.32
2023-10-19T08:20:28.690Z,58.33
2023-10-19T08:22:58.620Z,58.31
2023-10-19T08:25:33.610Z,58.32
2023-10-19T08:28:12.416Z,58.58
2023-10-19T08:30:39.170Z,58.65
2023-10-19T08:33:07.867Z,58.55
2023-10-19T08:35:37.096Z,58.67
2023-10-19T08:38:11.320Z,58.59
2023-10-19T08:40:39.384Z,58.31
2023-10-19T08:43:06.392Z,58.31
2023-10-19T08:45:35.660Z,58.22
2023-10-19T08:48:03.665Z,58.41
2023-10-19T08:50:32.500Z,58.34
2023-10-19T08:53:02.071Z,58.46
2023-10-19T08:58:02.034Z,58.45
2023-10-19T09:00:28.986Z,58.58
2023-10-19T09:02:57.915Z,58.60
2023-10-19T09:05:26.697Z,58.82
2023-10-19T09:08:00.447Z,59.06
2023-10-19T09:10:33.156Z,59.01
2023-10-19T09:13:03.141Z,58.86
2023-10-19T09:15:33.823Z,58.94
2023-10-19T09:18:13.931Z,59.02
2023-10-19T09:20:43.140Z,59.12
2023-10-19T09:23:09.938Z,59.37
2023-10-19T09:25:36.730Z,59.25
2023-10-19T09:28:03.814Z,59.25
2023-10-19T09:30:32.265Z,59.29
2023-10-19T09:33:00.002Z,59.40
2023-10-19T09:35:32.623Z,59.21
2023-10-19T09:38:02.269Z,59.04
2023-10-19T09:40:30.775Z,59.09
2023-10-19T09:42:59.013Z,59.00
2023-10-19T09:45:31.347Z,58.97
2023-10-19T09:48:06.692Z,59.05
2023-10-19T09:50:34.557Z,58.92
2023-10-19T09:53:05.154Z,58.91
2023-10-19T09:55:39.318Z,58.88
2023-10-19T09:58:22.902Z,58.95
2023-10-19T10:00:50.723Z,58.99
2023-10-19T10:03:49.826Z,59.03
2023-10-19T10:06:21.472Z,58.87
2023-10-19T10:08:49.787Z,59.05
2023-10-19T10:11:29.580Z,59.11
2023-10-19T10:13:58.398Z,59.05
2023-10-19T10:16:30.461Z,58.88
2023-10-19T10:19:02.858Z,58.78
2023-10-19T10:21:31.524Z,58.93
2023-10-19T10:24:04.250Z,58.93
2023-10-19T10:26:37.981Z,59.18
2023-10-19T10:29:21.503Z,58.83
2023-10-19T10:31:49.581Z,58.57
2023-10-19T10:34:35.550Z,58.81
2023-10-19T10:37:12.115Z,58.71
2023-10-19T10:39:41.916Z,58.52
2023-10-19T10:42:10.838Z,58.61
2023-10-19T10:44:42.008Z,58.54
2023-10-19T10:47:31.581Z,58.41
2023-10-19T10:50:00.605Z,58.32
2023-10-19T10:52:39.482Z,58.32
2023-10-19T10:55:16.393Z,58.46
2023-10-19T10:57:44.574Z,58.45
2023-10-19T11:00:20.201Z,58.59
2023-10-19T11:03:02.534Z,58.13
2023-10-19T11:05:29.606Z,58.30
2023-10-19T11:08:10.851Z,58.69
2023-10-19T11:10:39.116Z,58.35
2023-10-19T11:13:08.435Z,58.51
2023-10-19T11:15:36.403Z,58.27
2023-10-19T11:18:03.352Z,58.16
2023-10-19T11:20:30.426Z,58.46
2023-10-19T11:22:58.899Z,58.35
2023-10-19T11:25:29.923Z,58.41
2023-10-19T11:28:01.683Z,58.32
2023-10-19T11:30:29.500Z,58.40
2023-10-19T11:33:03.344Z,58.57
2023-10-19T11:35:31.987Z,58.03
2023-10-19T11:38:01.261Z,58.55
2023-10-19T11:40:28.565Z,58.53
2023-10-19T11:43:00.222Z,58.52
2023-10-19T11:45:27.591Z,58.73
2023-10-19T11:47:54.723Z,58.73
2023-10-19T11:50:21.604Z,58.80
2023-10-19T11:52:48.368Z,58.91
2023-10-19T11:55:16.668Z,59.17
2023-10-19T11:57:44.898Z,59.14
2023-10-19T12:00:15.388Z,59.23
2023-10-19T12:02:42.478Z,59.41
2023-10-19T12:05:13.248Z,59.46
2023-10-19T12:07:41.233Z,59.34
2023-10-19T12:10:12.276Z,59.53
2023-10-19T12:12:54.211Z,59.77
2023-10-19T12:15:26.937Z,59.59
2023-10-19T12:17:55.916Z,59.48
2023-10-19T12:20:23.381Z,59.56
2023-10-19T12:22:55.221Z,59.80
2023-10-19T12:25:31.898Z,59.66
2023-10-19T12:28:05.448Z,59.81
2023-10-19T12:30:33.581Z,60.11
2023-10-19T12:33:09.006Z,59.93
2023-10-19T12:35:53.101Z,59.86
2023-10-19T12:38:21.398Z,59.75
2023-10-19T12:40:51.821Z,59.78
2023-10-19T12:43:31.456Z,59.90
2023-10-19T12:45:59.243Z,59.97
2023-10-19T12:48:34.901Z,59.90
2023-10-19T12:51:03.040Z,60.09
2023-10-19T12:53:29.784Z,59.90
2023-10-19T12:55:56.542Z,60.09
2023-10-19T12:58:23.285Z,60.04
2023-10-19T13:00:50.223Z,60.09
2023-10-19T13:03:17.592Z,60.07
2023-10-19T13:05:45.839Z,59.96
2023-10-19T13:08:20.109Z,60.06
2023-10-19T13:10:50.007Z,60.19
2023-10-19T13:13:17.766Z,60.13
2023-10-19T13:15:55.043Z,60.03
2023-10-19T13:18:22.817Z,59.87
2023-10-19T13:20:50.018Z,60.19
2023-10-19T13:23:23.024Z,60.30
2023-10-19T13:25:53.651Z,60.12
2023-10-19T13:28:21.979Z,60.35
2023-10-19T13:30:51.296Z,60.40
2023-10-19T13:33:27.871Z,60.59
2023-10-19T13:35:54.737Z,60.67
2023-10-19T13:38:21.545Z,60.87
2023-10-19T13:40:48.485Z,60.62
2023-10-19T13:43:15.581Z,60.62
2023-10-19T13:45:46.287Z,60.72
2023-10-19T13:48:14.605Z,60.36
2023-10-19T13:50:49.635Z,60.71
2023-10-19T13:53:17.722Z,60.55
2023-10-19T13:55:45.004Z,60.64
2023-10-19T13:58:12.225Z,60.67
2023-10-19T14:00:42.812Z,60.50
2023-10-19T14:03:10.271Z,60.66
2023-10-19T14:05:44.050Z,60.79
2023-10-19T14:08:11.187Z,60.89
2023-10-19T14:10:38.149Z,60.63
2023-10-19T14:13:06.747Z,60.81
2023-10-19T14:15:35.242Z,61.22
2023-10-19T14:18:02.319Z,61.24
2023-10-19T14:20:33.172Z,61.20
2023-10-19T14:23:02.635Z,61.00
2023-10-19T14:25:29.706Z,60.66
2023-10-19T14:28:00.907Z,60.59
2023-10-19T14:30:32.503Z,60.34
2023-10-19T14:32:59.488Z,60.51
2023-10-19T14:35:26.692Z,60.35
2023-10-19T14:38:02.075Z,60.27
2023-10-19T14:40:31.597Z,60.19
2023-10-19T14:42:58.719Z,60.21
2023-10-19T14:45:27.510Z,60.19
2023-10-19T14:48:00.677Z,59.96
2023-10-19T14:50:30.588Z,59.78
2023-10-19T14:52:57.625Z,59.74
2023-10-19T14:55:24.992Z,59.81
2023-10-19T14:57:56.741Z,60.03
2023-10-19T15:00:35.936Z,60.26
2023-10-19T15:03:10.392Z,60.22
2023-10-19T15:05:38.995Z,60.33
2023-10-19T15:08:08.316Z,60.19
2023-10-19T15:10:42.643Z,60.41
2023-10-19T15:13:09.876Z,60.24
2023-10-19T15:15:37.614Z,60.42
2023-10-19T15:18:04.989Z,60.26
2023-10-19T15:20:33.723Z,60.18
2023-10-19T15:23:00.851Z,60.26
2023-10-19T15:25:28.310Z,60.28
2023-10-19T15:27:56.128Z,60.45
2023-10-19T15:30:25.790Z,60.51
2023-10-19T15:32:57.330Z,60.49
2023-10-19T15:35:24.541Z,60.51
2023-10-19T15:37:56.877Z,60.47
2023-10-19T15:40:25.709Z,60.58
2023-10-19T15:42:56.666Z,60.52
2023-10-19T15:45:24.011Z,60.20
2023-10-19T15:47:55.491Z,60.17
2023-10-19T15:50:23.258Z,60.13
2023-10-19T15:52:53.505Z,60.24
2023-10-19T15:55:23.776Z,60.28
2023-10-19T15:57:55.336Z,60.47
2023-10-19T16:00:23.973Z,60.65
2023-10-19T16:02:51.216Z,60.39
2023-10-19T16:05:19.577Z,60.57
2023-10-19T16:07:47.609Z,60.59
2023-10-19T16:10:14.715Z,60.56
2023-10-19T16:12:43.556Z,60.70
2023-10-19T16:15:10.665Z,60.59
2023-10-19T16:17:38.261Z,60.65
2023-10-19T16:20:07.956Z,60.71
2023-10-19T16:22:35.337Z,60.71
2023-10-19T16:25:04.931Z,60.78
2023-10-19T16:27:32.091Z,60.78
2023-10-19T16:29:59.080Z,60.56
2023-10-19T16:32:26.234Z,60.50
2023-10-19T16:34:53.546Z,60.24
2023-10-19T16:37:23.666Z,60.19
2023-10-19T16:39:51.394Z,60.09
2023-10-19T16:42:18.133Z,59.81
2023-10-19T16:44:44.973Z,59.67
2023-10-19T16:47:13.062Z,59.55
2023-10-19T16:49:40.367Z,59.36
2023-10-19T16:52:08.476Z,59.25
2023-10-19T16:54:35.616Z,59.10
2023-10-19T16:57:02.709Z,59.17
2023-10-19T16:59:30.933Z,59.16
2023-10-19T17:01:58.692Z,59.10
2023-10-19T17:04:27.089Z,59.10
2023-10-19T17:06:54.199Z,59.03
2023-10-19T17:09:22.892Z,59.00
2023-10-19T17:11:56.251Z,58.97
2023-10-19T17:14:23.157Z,58.91
2023-10-19T17:16:51.054Z,58.70
2023-10-19T17:19:18.170Z,59.02
2023-10-19T17:21:45.182Z,58.89
2023-10-19T17:24:12.097Z,58.69
2023-10-19T17:26:38.843Z,58.75
2023-10-19T17:29:06.057Z,58.76
2023-10-19T17:31:32.859Z,58.77
2023-10-19T17:33:59.764Z,58.57
2023-10-19T17:36:26.534Z,58.83
2023-10-19T17:38:53.343Z,58.87
2023-10-19T17:41:20.886Z,58.86
2023-10-19T17:43:48.885Z,58.69
2023-10-19T17:46:16.142Z,58.90
2023-10-19T17:48:45.914Z,58.87
2023-10-19T17:51:14.223Z,58.83
2023-10-19T17:53:41.528Z,58.92
2023-10-19T17:56:09.152Z,58.87
2023-10-19T17:58:36.849Z,58.58
2023-10-19T18:01:11.303Z,58.96
2023-10-19T18:03:42.879Z,58.86
2023-10-19T18:06:10.953Z,59.08
2023-10-19T18:08:39.078Z,59.07
2023-10-19T18:11:13.450Z,59.02
2023-10-19T18:13:41.016Z,59.13
2023-10-19T18:16:07.853Z,59.08
2023-10-19T18:18:34.843Z,59.02
2023-10-19T18:21:01.865Z,59.18
2023-10-19T18:23:28.801Z,59.20
2023-10-19T18:25:57.201Z,59.08
2023-10-19T18:28:24.130Z,59.25
2023-10-19T18:31:00.858Z,59.15
2023-10-19T18:33:30.276Z,59.14
2023-10-19T18:36:01.163Z,59.19
2023-10-19T18:38:28.825Z,58.88
2023-10-19T18:41:00.907Z,59.12
2023-10-19T18:43:29.019Z,58.89
2023-10-19T18:45:56.804Z,59.10
2023-10-19T18:48:26.160Z,59.04
2023-10-19T18:51:08.746Z,59.07
2023-10-19T18:53:36.034Z,59.11
2023-10-19T18:56:04.386Z,59.09
2023-10-19T18:58:31.328Z,59.24
2023-10-19T19:01:00.420Z,59.22
2023-10-19T19:03:27.665Z,59.21
2023-10-19T19:05:58.767Z,59.24
2023-10-19T19:08:34.613Z,59.02
2023-10-19T19:11:15.830Z,59.36
2023-10-19T19:13:43.697Z,59.25
2023-10-19T19:16:12.668Z,59.14
2023-10-19T19:18:39.920Z,59.17
2023-10-19T19:21:11.052Z,59.30
2023-10-19T19:23:40.572Z,59.17
2023-10-19T19:26:08.866Z,59.13
2023-10-19T19:28:40.293Z,59.15
2023-10-19T19:31:07.376Z,59.17
2023-10-19T19:33:34.257Z,59.27
2023-10-19T19:36:01.084Z,59.24
2023-10-19T19:38:27.846Z,59.19
2023-10-19T19:40:54.888Z,59.15
2023-10-19T19:43:23.411Z,59.14
2023-10-19T19:45:50.166Z,59.43
2023-10-19T19:48:22.490Z,59.13
2023-10-19T19:50:49.506Z,59.31
2023-10-19T19:53:16.381Z,59.29
2023-10-19T19:55:43.658Z,59.35
2023-10-19T19:58:12.159Z,59.08
2023-10-19T20:00:39.162Z,59.14
2023-10-19T20:03:06.087Z,59.33
2023-10-19T20:05:34.029Z,59.19
2023-10-19T20:08:05.042Z,59.19
2023-10-19T20:10:38.557Z,59.18
2023-10-19T20:13:06.667Z,59.22
2023-10-19T20:15:35.012Z,59.15
2023-10-19T20:18:03.171Z,59.23
2023-10-19T20:20:30.445Z,59.22
2023-10-19T20:23:00.912Z,59.34
2023-10-19T20:25:31.264Z,59.24
2023-10-19T20:28:05.714Z,59.24
2023-10-19T20:30:34.815Z,59.39
2023-10-19T20:33:01.884Z,59.36
2023-10-19T20:35:30.998Z,59.51
2023-10-19T20:37:57.921Z,59.53
2023-10-19T20:40:24.882Z,59.65
2023-10-19T20:42:55.924Z,59.82
2023-10-19T20:45:23.856Z,59.65
2023-10-19T20:47:53.047Z,59.63
2023-10-19T20:50:21.084Z,59.78
2023-10-19T20:52:47.804Z,59.98
2023-10-19T20:55:14.531Z,59.75
2023-10-19T20:57:41.456Z,59.90
2023-10-19T21:00:10.187Z,60.01
2023-10-19T21:02:37.700Z,59.99
2023-10-19T21:05:06.548Z,60.15
2023-10-19T21:07:34.193Z,60.17
2023-10-19T21:10:00.941Z,60.30
2023-10-19T21:12:27.787Z,60.26
2023-10-19T21:14:54.602Z,60.36
2023-10-19T21:17:21.408Z,60.36
2023-10-19T21:19:48.227Z,60.02
2023-10-19T21:22:15.276Z,60.25
2023-10-19T21:24:42.697Z,60.30
2023-10-19T21:27:11.192Z,60.40
2023-10-19T21:29:37.935Z,60.39
2023-10-19T21:32:05.093Z,60.19
2023-10-19T21:34:32.087Z,60.30
2023-10-19T21:36:59.021Z,60.32
2023-10-19T21:39:25.740Z,60.30
2023-10-19T21:41:52.497Z,60.20
2023-10-19T21:44:19.307Z,60.39
2023-10-19T21:46:46.136Z,60.42
2023-10-19T21:49:13.027Z,60.25
2023-10-19T21:51:41.372Z,60.44
2023-10-19T21:54:09.971Z,60.33
2023-10-19T21:56:36.994Z,60.36
2023-10-19T21:59:04.779Z,60.37
2023-10-19T22:01:33.168Z,60.40
2023-10-19T22:04:00.890Z,60.50
2023-10-19T22:06:27.733Z,60.39
2023-10-19T22:08:54.776Z,60.23
2023-10-19T22:11:21.612Z,60.61
2023-10-19T22:13:48.330Z,60.25
2023-10-19T22:16:15.203Z,60.72
2023-10-19T22:18:41.905Z,60.56
2023-10-19T22:21:08.671Z,60.67
2023-10-19T22:23:35.416Z,60.59
2023-10-19T22:26:02.266Z,60.92
2023-10-19T22:28:28.985Z,60.95
2023-10-19T22:30:55.957Z,60.71
2023-10-19T22:33:22.734Z,61.05
2023-10-19T22:35:50.608Z,60.74
2023-10-19T22:38:17.326Z,60.91
2023-10-19T22:40:44.844Z,60.85
2023-10-19T22:43:11.544Z,60.56
2023-10-19T22:45:39.409Z,60.71
2023-10-19T22:48:07.977Z,60.67
2023-10-19T22:50:35.479Z,60.82
2023-10-19T22:53:02.503Z,60.66
2023-10-19T22:55:29.681Z,60.73
2023-10-19T22:57:56.360Z,60.66
2023-10-19T23:00:23.183Z,60.46
2023-10-19T23:02:50.019Z,60.52
2023-10-19T23:05:17.363Z,60.52
2023-10-19T23:07:45.811Z,60.58
2023-10-19T23:10:13.989Z,60.65
2023-10-19T23:12:42.275Z,60.64
2023-10-19T23:15:12.799Z,60.84
2023-10-19T23:17:43.561Z,60.65
2023-10-19T23:20:29.227Z,60.82
2023-10-19T23:22:58.089Z,60.56
2023-10-19T23:25:25.039Z,60.65
2023-10-19T23:27:51.770Z,60.52
2023-10-19T23:30:20.383Z,60.78
2023-10-19T23:32:48.192Z,60.74
2023-10-19T23:35:15.789Z,60.58
2023-10-19T23:37:43.165Z,60.76
2023-10-19T23:40:13.564Z,60.74
2023-10-19T23:42:41.212Z,60.84
2023-10-19T23:45:12.537Z,60.73
2023-10-19T23:47:39.435Z,60.64
2023-10-19T23:50:07.995Z,60.73
2023-10-19T23:52:35.565Z,60.61
2023-10-19T23:55:02.638Z,60.77
2023-10-19T23:57:29.411Z,60.81
2023-10-19T23:59:58.908Z,60.79
